SAZSSCCY

Guest
Details From SAZS - SAN CARLOS DE BARILOCHE
To SCCY - TENIENTE VIDAL
Flight Number -
Tags generated
Created
Modified
Stats Distance 274 nm / 507 km
Max Altitude 23,500 ft / 7,163 m
Waypoints 5
Social Downloads 0
Likes 0
Share VATSIM

Download

Looking for another format? Having issues loading an existing format? Contact us
Advertisement - Login to hide

Notes

Basic altitude profile: - Ascent Rate: 2500ft/min - Ascent Speed: 250kts - Cruise Altitude: 35000ft - Cruise Speed: 420kts - Descent Rate: 1500ft/min - Descent Speed: 250kts Options: - Use NATs: yes - Use PACOTS: yes - Use low airways: yes - Use high airways: yes

Route

SAZS TORES W44 ASIRA SCCY

ID Type Via Altitude Latitude Longitude Leg Dist Tot Dist Heading (true) Name
O SAZS APT - 0 ft / 0 m -41.15117˚ -71.15754˚ - 0 nm - SAN CARLOS DE BARILOCHE
TORES FIX - 12,200 ft / 3,719 m -41.72333˚ -71.16111˚ 34 nm 34 nm 180° / 180° -
ESQ VOR W44 (AWY-LO) 23,500 ft / 7,163 m -42.88722˚ -71.10028˚ 69 nm 104 nm 178° / 178° ESQUEL VOR-DME
ASIRA FIX W44 (AWY-LO) 23,500 ft / 7,163 m -43.38306˚ -71.08917˚ 29 nm 134 nm 179° / 179° -
O SCCY APT - 0 ft / 0 m -45.59420˚ -72.10613˚ 139 nm 273 nm 198° / 199° TENIENTE VIDAL

Altitude Profile

Advertisement - Login to hide

Weather


0- 5 10 15 20 25 30 35+ Temperature / ° C

Clouds and Precipitation
Forecast for 2017-12-13 18:00 UTC. Updated 22 minutes ago

Ground ~20,000 ft ~40,000 ft Winds

SAZS

Details ICAO SAZS (BRC)
Name SAN CARLOS DE BARILOCHE
Region Argentina
Timezone America/Argentina/Salta (UTC-3.0)
Stats Elevation 2,776 ft / 846 m (AMSL)
Location -41.151172° -71.157541°
Runways 1
Magnetic Variation 6.659° E

METAR

SAZS 131700Z 29026KT 9999 SCT038 SCT050 18/06 Q1017

Decode

TAF

TAF SAZS 131100Z 1312/1412 30015KT 9999 SCT040 TX17/1319Z TN11/1409Z BECMG 1314/1315 29025G35KT BECMG 1320/1322 29015KT 9999 SCT015 BKN030 BECMG 1405/1407 29025G35KT

Decode

Departure Runways

ID Width Length Bearing (true) Bearing (mag) Surface Threshold Offset Overrun Length
11 157 ft / 48 m 7,693 ft / 2,345 m 114.70° 108.04° Asphalt 0 ft / 0 m 0 ft / 0 m
29 157 ft / 48 m 7,693 ft / 2,345 m 294.68° 288.02° Asphalt 0 ft / 0 m 0 ft / 0 m

SCCY

Details ICAO SCCY (GXQ)
Name TENIENTE VIDAL
Region Chile
Timezone America/Santiago (UTC-3.0)
Stats Elevation 1,020 ft / 311 m (AMSL)
Location -45.594200° -72.106133°
Runways 1
Magnetic Variation 10.043° E

METAR

SCCY 131700Z VRB03KT 9999 -SHRA BKN033 15/07 Q1009

Decode

TAF

Not found

Destination Runways

ID Width Length Bearing (true) Bearing (mag) Surface Threshold Offset Overrun Length
03 98 ft / 30 m 5,041 ft / 1,536 m 45.47° 35.43° Asphalt 0 ft / 0 m 115 ft / 35 m
21 98 ft / 30 m 5,041 ft / 1,536 m 225.46° 215.42° Asphalt 0 ft / 0 m 100 ft / 30 m